createdAt,value
2023-02-02T00:01:55.584Z,98138.33
2023-02-02T00:05:00.696Z,98133.17
2023-02-02T00:08:03.181Z,98134.84
2023-02-02T00:11:07.030Z,98135.14
2023-02-02T00:14:09.822Z,98131.94
2023-02-02T00:17:14.360Z,98132.05
2023-02-02T00:20:17.160Z,98134.59
2023-02-02T00:23:19.466Z,98130.66
2023-02-02T00:26:21.809Z,98128.07
2023-02-02T00:29:31.687Z,98129.02
2023-02-02T00:32:35.888Z,98126.17
2023-02-02T00:35:40.565Z,98123.14
2023-02-02T00:38:44.142Z,98121.20
2023-02-02T00:41:50.028Z,98122.46
2023-02-02T00:45:12.566Z,98121.67
2023-02-02T00:48:14.975Z,98122.58
2023-02-02T00:51:19.596Z,98121.09
2023-02-02T00:54:22.777Z,98120.96
2023-02-02T00:57:24.694Z,98118.23
2023-02-02T01:00:27.257Z,98116.09
2023-02-02T01:03:29.868Z,98110.92
2023-02-02T01:06:31.930Z,98115.78
2023-02-02T01:09:35.580Z,98119.36
2023-02-02T01:12:40.684Z,98121.79
2023-02-02T01:15:42.682Z,98113.95
2023-02-02T01:18:46.812Z,98113.35
2023-02-02T01:21:50.092Z,98118.86
2023-02-02T01:24:56.163Z,98116.16
2023-02-02T01:27:59.239Z,98108.95
2023-02-02T01:31:13.848Z,98108.72
2023-02-02T01:34:16.282Z,98109.16
2023-02-02T01:37:23.113Z,98109.19
2023-02-02T01:40:26.657Z,98106.16
2023-02-02T01:43:49.823Z,98106.88
2023-02-02T01:46:52.409Z,98108.10
2023-02-02T01:49:55.683Z,98111.79
2023-02-02T01:53:01.764Z,98111.43
2023-02-02T01:56:08.170Z,98109.32
2023-02-02T01:59:15.222Z,98111.73
2023-02-02T02:02:17.956Z,98109.73
2023-02-02T02:05:27.899Z,98115.88
2023-02-02T02:08:53.888Z,98110.95
2023-02-02T02:11:56.690Z,98114.77
2023-02-02T02:15:19.266Z,98114.64
2023-02-02T02:18:40.803Z,98110.19
2023-02-02T02:22:08.919Z,98111.69
2023-02-02T02:26:02.134Z,98110.19
2023-02-02T02:29:32.104Z,98108.81
2023-02-02T02:32:37.757Z,98116.33
2023-02-02T02:35:47.869Z,98115.68
2023-02-02T02:39:06.342Z,98119.08
2023-02-02T02:42:16.225Z,98123.16
2023-02-02T02:45:21.440Z,98124.23
2023-02-02T02:48:25.826Z,98128.78
2023-02-02T02:51:48.310Z,98128.87
2023-02-02T02:55:00.272Z,98131.67
2023-02-02T02:58:39.779Z,98130.30
2023-02-02T03:02:16.437Z,98131.29
2023-02-02T03:05:54.868Z,98131.73
2023-02-02T03:09:08.273Z,98133.35
2023-02-02T03:12:12.899Z,98136.77
2023-02-02T03:15:16.397Z,98134.20
2023-02-02T03:18:22.446Z,98139.46
2023-02-02T03:21:27.133Z,98137.65
2023-02-02T03:24:29.986Z,98142.42
2023-02-02T03:27:34.195Z,98140.04
2023-02-02T03:30:37.890Z,98138.10
2023-02-02T03:33:42.797Z,98138.33
2023-02-02T03:36:49.250Z,98145.61
2023-02-02T03:39:51.966Z,98147.46
2023-02-02T03:42:58.238Z,98150.02
2023-02-02T07:26:56.361Z,98254.13
2023-02-02T07:30:03.935Z,98259.26
2023-02-02T07:33:06.961Z,98260.21
2023-02-02T07:36:10.381Z,98258.80
2023-02-02T07:39:13.130Z,98257.34
2023-02-02T07:42:15.158Z,98257.47
2023-02-02T07:45:27.040Z,98257.30
2023-02-02T07:48:30.684Z,98260.38
2023-02-02T07:51:33.977Z,98255.86
2023-02-02T07:54:36.752Z,98253.18
2023-02-02T07:57:39.514Z,98253.00
2023-02-02T08:00:42.658Z,98255.25
2023-02-02T08:03:47.099Z,98256.95
2023-02-02T08:06:49.195Z,98253.36
2023-02-02T08:09:52.044Z,98253.56
2023-02-02T08:12:54.395Z,98254.92
2023-02-02T08:16:00.710Z,98263.64
2023-02-02T08:19:02.632Z,98265.08
2023-02-02T08:22:05.073Z,98267.12
2023-02-02T08:25:10.382Z,98273.63
2023-02-02T08:28:12.843Z,98275.29
2023-02-02T08:31:22.427Z,98276.77
2023-02-02T08:34:24.585Z,98278.02
2023-02-02T08:37:27.912Z,98273.52
2023-02-02T08:40:31.127Z,98273.14
2023-02-02T08:43:34.573Z,98272.27
2023-02-02T08:46:37.050Z,98275.59
2023-02-02T08:49:41.960Z,98276.95
2023-02-02T08:52:44.194Z,98282.11
2023-02-02T08:55:47.867Z,98287.73
2023-02-02T08:58:55.199Z,98289.89
2023-02-02T09:02:16.294Z,98287.70
2023-02-02T09:05:40.734Z,98282.58
2023-02-02T09:08:44.577Z,98286.44
2023-02-02T09:11:56.248Z,98281.61
2023-02-02T09:15:01.850Z,98279.15
2023-02-02T09:18:05.655Z,98280.73
2023-02-02T09:21:14.877Z,98278.27
2023-02-02T09:24:18.893Z,98277.87
2023-02-02T09:27:22.219Z,98273.80
2023-02-02T09:30:25.375Z,98278.17
2023-02-02T09:33:28.781Z,98278.45
2023-02-02T09:36:33.124Z,98277.54
2023-02-02T09:39:35.291Z,98279.51
2023-02-02T09:43:00.893Z,98275.15
2023-02-02T09:46:26.145Z,98269.91
2023-02-02T09:49:36.966Z,98272.48
2023-02-02T09:52:46.047Z,98274.02
2023-02-02T09:55:56.487Z,98271.48
2023-02-02T09:59:18.780Z,98279.70
2023-02-02T10:02:53.007Z,98282.77
2023-02-02T10:06:15.370Z,98276.90
2023-02-02T10:09:43.147Z,98276.48
2023-02-02T10:13:02.581Z,98271.79
2023-02-02T10:16:16.794Z,98269.52
2023-02-02T10:19:19.980Z,98259.30
2023-02-02T10:22:29.066Z,98254.56
2023-02-02T10:25:33.737Z,98254.41
2023-02-02T10:29:00.412Z,98259.16
2023-02-02T10:32:22.447Z,98267.27
2023-02-02T10:35:47.191Z,98269.70
2023-02-02T10:39:03.296Z,98274.54
2023-02-02T10:42:18.036Z,98272.30
2023-02-02T10:45:23.927Z,98267.73
2023-02-02T10:48:54.207Z,98263.06
2023-02-02T10:52:10.745Z,98265.79
2023-02-02T10:55:30.766Z,98259.31
2023-02-02T10:58:58.370Z,98263.74
2023-02-02T11:02:20.316Z,98258.48
2023-02-02T11:05:47.681Z,98264.73
2023-02-02T11:08:57.681Z,98266.98
2023-02-02T11:12:21.388Z,98268.98
2023-02-02T11:15:28.750Z,98276.00
2023-02-02T11:18:32.878Z,98271.54
2023-02-02T11:21:37.949Z,98270.83
2023-02-02T11:24:47.298Z,98271.95
2023-02-02T11:27:49.555Z,98270.34
2023-02-02T11:30:53.373Z,98267.23
2023-02-02T11:34:21.199Z,98261.23
2023-02-02T11:37:29.648Z,98264.48
2023-02-02T11:40:36.490Z,98259.49
2023-02-02T11:43:47.189Z,98264.18
2023-02-02T11:46:51.357Z,98262.05
2023-02-02T11:49:57.450Z,98259.88
2023-02-02T14:18:59.630Z,98306.40
2023-02-02T14:22:09.733Z,98307.83
2023-02-02T14:25:33.345Z,98310.79
2023-02-02T14:28:48.732Z,98314.19
2023-02-02T14:31:54.065Z,98315.17
2023-02-02T14:35:26.135Z,98315.70
2023-02-02T14:39:01.094Z,98318.69
2023-02-02T14:42:35.781Z,98322.88
2023-02-02T14:45:42.377Z,98325.34
2023-02-02T14:49:14.507Z,98333.34
2023-02-02T14:52:22.893Z,98340.38
2023-02-02T14:55:29.297Z,98342.04
2023-02-02T14:58:34.435Z,98348.55
2023-02-02T15:01:39.335Z,98349.52
2023-02-02T15:04:49.345Z,98353.61
2023-02-02T15:07:54.323Z,98356.17
2023-02-02T15:11:23.075Z,98360.54
2023-02-02T15:14:31.620Z,98363.30
2023-02-02T15:18:16.607Z,98361.05
2023-02-02T15:21:23.420Z,98366.14
2023-02-02T15:24:30.197Z,98363.88
2023-02-02T15:27:33.292Z,98363.34
2023-02-02T15:30:40.622Z,98367.46
2023-02-02T15:33:51.119Z,98370.79
2023-02-02T15:36:59.435Z,98369.58
2023-02-02T15:40:05.088Z,98373.59
2023-02-02T15:43:13.167Z,98374.93
2023-02-02T15:46:35.276Z,98380.59
2023-02-02T15:49:38.637Z,98386.64
2023-02-02T15:52:53.053Z,98387.30
2023-02-02T15:55:56.936Z,98388.20
2023-02-02T15:59:02.579Z,98384.92
2023-02-02T16:02:12.121Z,98388.12
2023-02-02T16:05:36.472Z,98385.81
2023-02-02T16:08:40.601Z,98391.17
2023-02-02T16:11:44.934Z,98392.84
2023-02-02T16:14:53.810Z,98394.87
2023-02-02T16:18:05.060Z,98398.30
2023-02-02T16:21:19.219Z,98398.04
2023-02-02T16:24:32.719Z,98400.17
2023-02-02T16:27:37.667Z,98398.48
2023-02-02T16:30:59.635Z,98402.58
2023-02-02T16:34:04.109Z,98411.02
2023-02-02T16:37:07.413Z,98411.09
2023-02-02T16:40:27.342Z,98414.35
2023-02-02T16:43:34.391Z,98414.04
2023-02-02T16:47:02.546Z,98419.77
2023-02-02T16:50:29.244Z,98421.80
2023-02-02T16:53:41.017Z,98425.80
2023-02-02T16:56:55.683Z,98426.46
2023-02-02T17:00:05.773Z,98434.90
2023-02-02T17:03:45.933Z,98433.16
2023-02-02T17:06:53.557Z,98440.36
2023-02-02T17:10:33.774Z,98437.60
2023-02-02T17:13:40.718Z,98440.89
2023-02-02T17:17:16.456Z,98444.10
2023-02-02T17:20:22.552Z,98445.44
2023-02-02T17:23:28.241Z,98443.72
2023-02-02T17:26:39.005Z,98446.44
2023-02-02T17:29:41.243Z,98442.79
2023-02-02T17:32:50.575Z,98445.32
2023-02-02T17:36:20.534Z,98449.85
2023-02-02T17:39:28.215Z,98449.66
2023-02-02T17:42:38.268Z,98459.66
2023-02-02T17:45:48.756Z,98464.13
2023-02-02T17:49:05.762Z,98465.95
2023-02-02T17:52:15.886Z,98475.15
2023-02-02T17:55:24.784Z,98475.83
2023-02-02T17:58:27.426Z,98476.60
2023-02-02T18:01:37.645Z,98480.07
2023-02-02T18:04:46.882Z,98485.20
2023-02-02T18:07:50.597Z,98482.83
2023-02-02T18:10:59.488Z,98481.10
2023-02-02T18:14:09.026Z,98478.56
2023-02-02T18:17:15.751Z,98479.02
2023-02-02T18:20:31.345Z,98479.70
2023-02-02T18:23:35.103Z,98483.58
2023-02-02T18:26:50.119Z,98487.60
2023-02-02T18:29:56.641Z,98487.30
2023-02-02T18:33:02.513Z,98492.86
2023-02-02T18:36:35.852Z,98492.77
2023-02-02T18:39:49.393Z,98500.11
2023-02-02T18:42:52.519Z,98502.05
2023-02-02T18:46:05.181Z,98507.85
2023-02-02T18:49:10.743Z,98510.45
2023-02-02T18:52:15.187Z,98513.29
2023-02-02T18:55:19.293Z,98511.89
2023-02-02T18:58:22.381Z,98512.82
2023-02-02T19:01:25.857Z,98513.52
2023-02-02T19:04:27.907Z,98514.42
2023-02-02T19:07:54.383Z,98517.50
2023-02-02T19:11:01.737Z,98518.17
2023-02-02T19:14:37.164Z,98518.76
2023-02-02T19:17:40.484Z,98520.35
2023-02-02T19:20:43.545Z,98526.20
2023-02-02T19:23:50.388Z,98530.94
2023-02-02T19:26:54.794Z,98527.17
2023-02-02T19:30:00.944Z,98524.44
2023-02-02T19:33:14.721Z,98528.61
2023-02-02T19:36:23.767Z,98529.63
2023-02-02T19:39:30.823Z,98532.10
2023-02-02T19:42:40.260Z,98534.33
2023-02-02T19:45:45.809Z,98533.80
2023-02-02T19:49:15.713Z,98535.42
2023-02-02T19:52:26.738Z,98537.75
2023-02-02T19:55:35.477Z,98533.46
2023-02-02T22:21:48.610Z,98612.91
2023-02-02T22:25:04.625Z,98619.63
2023-02-02T22:28:23.743Z,98621.38
2023-02-02T22:31:28.049Z,98624.64
2023-02-02T22:34:35.562Z,98625.58
2023-02-02T22:37:38.027Z,98629.11
2023-02-02T22:40:40.369Z,98630.60
2023-02-02T22:43:42.826Z,98632.38
2023-02-02T22:46:46.106Z,98636.97
2023-02-02T22:49:48.571Z,98637.10
2023-02-02T22:52:53.939Z,98633.71
2023-02-02T22:56:03.545Z,98635.12
2023-02-02T22:59:17.287Z,98640.67
2023-02-02T23:02:26.806Z,98642.66
2023-02-02T23:05:29.801Z,98643.64
2023-02-02T23:08:33.963Z,98638.30
2023-02-02T23:11:55.520Z,98638.70
2023-02-02T23:15:05.924Z,98642.37
2023-02-02T23:18:12.683Z,98638.92
2023-02-02T23:21:19.680Z,98639.29
2023-02-02T23:27:01.902Z,98633.58
2023-02-02T23:30:08.623Z,98635.77
2023-02-02T23:33:12.225Z,98637.67
2023-02-02T23:36:15.643Z,98635.30
2023-02-02T23:39:17.905Z,98639.16
2023-02-02T23:42:21.573Z,98644.93
2023-02-02T23:45:24.717Z,98646.25
2023-02-02T23:48:30.433Z,98648.47
2023-02-02T23:51:33.153Z,98651.35
2023-02-02T23:54:35.714Z,98651.61
2023-02-02T23:57:38.271Z,98652.23
